sensor_id;sensor_type;location;lat;lon;timestamp;temperature;humidity
19781;DHT22;10050;55.492;13.506;2022-12-07T00:01:13;2.00;99.90
19781;DHT22;10050;55.492;13.506;2022-12-07T00:03:40;2.10;99.90
19781;DHT22;10050;55.492;13.506;2022-12-07T00:06:08;2.10;99.90
19781;DHT22;10050;55.492;13.506;2022-12-07T00:08:34;2.10;99.90
19781;DHT22;10050;55.492;13.506;2022-12-07T00:11:05;2.10;99.90
19781;DHT22;10050;55.492;13.506;2022-12-07T00:13:32;2.10;99.90
19781;DHT22;10050;55.492;13.506;2022-12-07T00:16:02;2.10;99.90
19781;DHT22;10050;55.492;13.506;2022-12-07T00:18:28;2.20;99.90
19781;DHT22;10050;55.492;13.506;2022-12-07T00:21:02;2.20;99.90
19781;DHT22;10050;55.492;13.506;2022-12-07T00:23:28;2.20;99.90
19781;DHT22;10050;55.492;13.506;2022-12-07T00:25:54;2.20;99.90
19781;DHT22;10050;55.492;13.506;2022-12-07T00:28:20;2.20;99.90
19781;DHT22;10050;55.492;13.506;2022-12-07T00:30:45;2.20;99.90
19781;DHT22;10050;55.492;13.506;2022-12-07T00:33:11;2.20;99.90
19781;DHT22;10050;55.492;13.506;2022-12-07T00:35:37;2.20;99.90
19781;DHT22;10050;55.492;13.506;2022-12-07T00:38:02;2.10;99.90
19781;DHT22;10050;55.492;13.506;2022-12-07T00:40:28;2.10;99.90
19781;DHT22;10050;55.492;13.506;2022-12-07T00:42:53;2.10;99.90
19781;DHT22;10050;55.492;13.506;2022-12-07T00:45:19;2.10;99.90
19781;DHT22;10050;55.492;13.506;2022-12-07T00:47:45;2.00;99.90
19781;DHT22;10050;55.492;13.506;2022-12-07T00:50:10;2.10;99.90
19781;DHT22;10050;55.492;13.506;2022-12-07T00:52:36;2.10;99.90
19781;DHT22;10050;55.492;13.506;2022-12-07T00:55:01;2.10;99.90
19781;DHT22;10050;55.492;13.506;2022-12-07T00:57:28;2.00;99.90
19781;DHT22;10050;55.492;13.506;2022-12-07T00:59:55;2.00;99.90
19781;DHT22;10050;55.492;13.506;2022-12-07T01:02:23;2.00;99.90
19781;DHT22;10050;55.492;13.506;2022-12-07T01:04:49;2.00;99.90
19781;DHT22;10050;55.492;13.506;2022-12-07T01:07:14;2.00;99.90
19781;DHT22;10050;55.492;13.506;2022-12-07T01:09:40;1.90;99.90
19781;DHT22;10050;55.492;13.506;2022-12-07T01:12:05;2.00;99.90
19781;DHT22;10050;55.492;13.506;2022-12-07T01:14:31;1.90;99.90
19781;DHT22;10050;55.492;13.506;2022-12-07T01:16:57;1.90;99.90
19781;DHT22;10050;55.492;13.506;2022-12-07T01:19:22;1.90;99.90
19781;DHT22;10050;55.492;13.506;2022-12-07T01:21:48;1.90;99.90
19781;DHT22;10050;55.492;13.506;2022-12-07T01:24:13;1.90;99.90
19781;DHT22;10050;55.492;13.506;2022-12-07T01:26:39;1.90;99.90
19781;DHT22;10050;55.492;13.506;2022-12-07T01:29:05;1.90;99.90
19781;DHT22;10050;55.492;13.506;2022-12-07T01:31:30;1.90;99.90
19781;DHT22;10050;55.492;13.506;2022-12-07T01:33:58;1.90;99.90
19781;DHT22;10050;55.492;13.506;2022-12-07T01:36:31;1.90;99.90
19781;DHT22;10050;55.492;13.506;2022-12-07T01:38:59;1.90;99.90
19781;DHT22;10050;55.492;13.506;2022-12-07T01:41:30;1.90;99.90
19781;DHT22;10050;55.492;13.506;2022-12-07T01:44:18;1.90;99.90
19781;DHT22;10050;55.492;13.506;2022-12-07T01:46:59;1.90;99.90
19781;DHT22;10050;55.492;13.506;2022-12-07T01:54:43;1.90;99.90
19781;DHT22;10050;55.492;13.506;2022-12-07T01:57:10;1.90;99.90
19781;DHT22;10050;55.492;13.506;2022-12-07T01:59:37;2.00;99.90
19781;DHT22;10050;55.492;13.506;2022-12-07T02:02:10;2.00;99.90
19781;DHT22;10050;55.492;13.506;2022-12-07T02:04:37;2.00;99.90
19781;DHT22;10050;55.492;13.506;2022-12-07T02:07:03;2.00;99.90
19781;DHT22;10050;55.492;13.506;2022-12-07T02:09:29;2.10;99.90
19781;DHT22;10050;55.492;13.506;2022-12-07T02:11:55;2.10;99.90
19781;DHT22;10050;55.492;13.506;2022-12-07T02:14:21;2.10;99.90
19781;DHT22;10050;55.492;13.506;2022-12-07T02:17:13;2.10;99.90
19781;DHT22;10050;55.492;13.506;2022-12-07T02:20:03;2.10;99.90
19781;DHT22;10050;55.492;13.506;2022-12-07T02:28:00;2.10;99.90
19781;DHT22;10050;55.492;13.506;2022-12-07T02:30:31;2.10;99.90
19781;DHT22;10050;55.492;13.506;2022-12-07T02:33:11;2.10;99.90
19781;DHT22;10050;55.492;13.506;2022-12-07T02:35:45;2.10;99.90
19781;DHT22;10050;55.492;13.506;2022-12-07T02:38:18;2.10;99.90
19781;DHT22;10050;55.492;13.506;2022-12-07T02:40:57;2.20;99.90
19781;DHT22;10050;55.492;13.506;2022-12-07T02:43:27;2.10;99.90
19781;DHT22;10050;55.492;13.506;2022-12-07T02:45:57;2.20;99.90
19781;DHT22;10050;55.492;13.506;2022-12-07T02:48:26;2.20;99.90
19781;DHT22;10050;55.492;13.506;2022-12-07T02:50:54;2.20;99.90
19781;DHT22;10050;55.492;13.506;2022-12-07T02:53:49;2.20;99.90
19781;DHT22;10050;55.492;13.506;2022-12-07T02:59:26;2.10;99.90
19781;DHT22;10050;55.492;13.506;2022-12-07T03:15:54;2.20;99.90
19781;DHT22;10050;55.492;13.506;2022-12-07T03:18:24;2.20;99.90
19781;DHT22;10050;55.492;13.506;2022-12-07T03:20:53;2.20;99.90
19781;DHT22;10050;55.492;13.506;2022-12-07T03:23:21;2.10;99.90
19781;DHT22;10050;55.492;13.506;2022-12-07T03:25:52;2.10;99.90
19781;DHT22;10050;55.492;13.506;2022-12-07T03:28:21;2.10;99.90
19781;DHT22;10050;55.492;13.506;2022-12-07T03:30:52;2.10;99.90
19781;DHT22;10050;55.492;13.506;2022-12-07T03:34:20;2.10;99.90
19781;DHT22;10050;55.492;13.506;2022-12-07T03:36:32;2.10;99.90
19781;DHT22;10050;55.492;13.506;2022-12-07T03:41:54;2.10;99.90
19781;DHT22;10050;55.492;13.506;2022-12-07T03:44:21;2.10;99.90
19781;DHT22;10050;55.492;13.506;2022-12-07T03:47:01;2.10;99.90
19781;DHT22;10050;55.492;13.506;2022-12-07T03:49:40;2.10;99.90
19781;DHT22;10050;55.492;13.506;2022-12-07T03:52:38;2.10;99.90
19781;DHT22;10050;55.492;13.506;2022-12-07T03:55:18;2.10;99.90
19781;DHT22;10050;55.492;13.506;2022-12-07T03:57:47;2.10;99.90
19781;DHT22;10050;55.492;13.506;2022-12-07T04:00:15;2.00;99.90
19781;DHT22;10050;55.492;13.506;2022-12-07T04:02:41;2.00;99.90
19781;DHT22;10050;55.492;13.506;2022-12-07T04:05:08;2.00;99.90
19781;DHT22;10050;55.492;13.506;2022-12-07T04:07:34;2.00;99.90
19781;DHT22;10050;55.492;13.506;2022-12-07T04:09:59;2.00;99.90
19781;DHT22;10050;55.492;13.506;2022-12-07T04:12:25;1.90;99.90
19781;DHT22;10050;55.492;13.506;2022-12-07T04:14:51;2.00;99.90
19781;DHT22;10050;55.492;13.506;2022-12-07T04:17:16;2.00;99.90
19781;DHT22;10050;55.492;13.506;2022-12-07T04:19:42;2.00;99.90
19781;DHT22;10050;55.492;13.506;2022-12-07T04:22:08;2.00;99.90
19781;DHT22;10050;55.492;13.506;2022-12-07T04:24:34;2.00;99.90
19781;DHT22;10050;55.492;13.506;2022-12-07T04:27:00;2.00;99.90
19781;DHT22;10050;55.492;13.506;2022-12-07T04:29:26;2.00;99.90
19781;DHT22;10050;55.492;13.506;2022-12-07T04:31:52;2.00;99.90
19781;DHT22;10050;55.492;13.506;2022-12-07T04:34:18;2.00;99.90
19781;DHT22;10050;55.492;13.506;2022-12-07T04:36:45;2.00;99.90
19781;DHT22;10050;55.492;13.506;2022-12-07T04:39:40;2.00;99.90
19781;DHT22;10050;55.492;13.506;2022-12-07T04:42:06;2.00;99.90
19781;DHT22;10050;55.492;13.506;2022-12-07T04:44:32;1.90;99.90
19781;DHT22;10050;55.492;13.506;2022-12-07T04:46:57;1.90;99.90
19781;DHT22;10050;55.492;13.506;2022-12-07T04:49:24;1.90;99.90
19781;DHT22;10050;55.492;13.506;2022-12-07T04:51:50;1.90;99.90
19781;DHT22;10050;55.492;13.506;2022-12-07T04:54:16;1.90;99.90
19781;DHT22;10050;55.492;13.506;2022-12-07T04:56:42;1.90;99.90
19781;DHT22;10050;55.492;13.506;2022-12-07T04:59:08;1.90;99.90
19781;DHT22;10050;55.492;13.506;2022-12-07T05:01:34;1.90;99.90
19781;DHT22;10050;55.492;13.506;2022-12-07T05:04:00;1.90;99.90
19781;DHT22;10050;55.492;13.506;2022-12-07T05:06:26;1.90;99.90
19781;DHT22;10050;55.492;13.506;2022-12-07T05:08:52;1.90;99.90
19781;DHT22;10050;55.492;13.506;2022-12-07T05:11:17;1.90;99.90
19781;DHT22;10050;55.492;13.506;2022-12-07T05:14:03;1.80;99.90
19781;DHT22;10050;55.492;13.506;2022-12-07T05:16:29;1.80;99.90
19781;DHT22;10050;55.492;13.506;2022-12-07T05:18:55;1.80;99.90
19781;DHT22;10050;55.492;13.506;2022-12-07T05:21:21;1.80;99.90
19781;DHT22;10050;55.492;13.506;2022-12-07T05:23:47;1.80;99.90
19781;DHT22;10050;55.492;13.506;2022-12-07T05:26:12;1.70;99.90
19781;DHT22;10050;55.492;13.506;2022-12-07T05:28:38;1.80;99.90
19781;DHT22;10050;55.492;13.506;2022-12-07T05:31:04;1.70;99.90
19781;DHT22;10050;55.492;13.506;2022-12-07T05:33:29;1.70;99.90
19781;DHT22;10050;55.492;13.506;2022-12-07T05:35:55;1.70;99.90
19781;DHT22;10050;55.492;13.506;2022-12-07T05:38:20;1.70;99.90
19781;DHT22;10050;55.492;13.506;2022-12-07T05:40:46;1.60;99.90
19781;DHT22;10050;55.492;13.506;2022-12-07T05:43:12;1.60;99.90
19781;DHT22;10050;55.492;13.506;2022-12-07T05:45:37;1.60;99.90
19781;DHT22;10050;55.492;13.506;2022-12-07T05:48:03;1.50;99.90
19781;DHT22;10050;55.492;13.506;2022-12-07T05:50:29;1.50;99.90
19781;DHT22;10050;55.492;13.506;2022-12-07T05:52:55;1.50;99.90
19781;DHT22;10050;55.492;13.506;2022-12-07T05:55:20;1.50;99.90
19781;DHT22;10050;55.492;13.506;2022-12-07T05:57:46;1.50;99.90
19781;DHT22;10050;55.492;13.506;2022-12-07T06:00:32;1.50;99.90
19781;DHT22;10050;55.492;13.506;2022-12-07T06:02:58;1.50;99.90
19781;DHT22;10050;55.492;13.506;2022-12-07T06:05:23;1.50;99.90
19781;DHT22;10050;55.492;13.506;2022-12-07T06:07:49;1.60;99.90
19781;DHT22;10050;55.492;13.506;2022-12-07T06:10:15;1.60;99.90
19781;DHT22;10050;55.492;13.506;2022-12-07T06:12:40;1.60;99.90
19781;DHT22;10050;55.492;13.506;2022-12-07T06:15:09;1.60;99.90
19781;DHT22;10050;55.492;13.506;2022-12-07T06:17:35;1.60;99.90
19781;DHT22;10050;55.492;13.506;2022-12-07T06:20:01;1.60;99.90
19781;DHT22;10050;55.492;13.506;2022-12-07T06:22:27;1.60;99.90
19781;DHT22;10050;55.492;13.506;2022-12-07T06:24:53;1.60;99.90
19781;DHT22;10050;55.492;13.506;2022-12-07T06:27:18;1.60;99.90
19781;DHT22;10050;55.492;13.506;2022-12-07T06:29:44;1.50;99.90
19781;DHT22;10050;55.492;13.506;2022-12-07T06:32:10;1.50;99.90
19781;DHT22;10050;55.492;13.506;2022-12-07T06:34:36;1.40;99.90
19781;DHT22;10050;55.492;13.506;2022-12-07T06:37:02;1.40;99.90
19781;DHT22;10050;55.492;13.506;2022-12-07T06:39:28;1.40;99.90
19781;DHT22;10050;55.492;13.506;2022-12-07T06:41:54;1.40;99.90
19781;DHT22;10050;55.492;13.506;2022-12-07T06:44:21;1.30;99.90
19781;DHT22;10050;55.492;13.506;2022-12-07T06:46:48;1.30;99.90
19781;DHT22;10050;55.492;13.506;2022-12-07T06:49:14;1.20;99.90
19781;DHT22;10050;55.492;13.506;2022-12-07T06:51:39;1.10;99.90
19781;DHT22;10050;55.492;13.506;2022-12-07T06:54:14;1.10;99.90
19781;DHT22;10050;55.492;13.506;2022-12-07T06:56:42;1.10;99.90
19781;DHT22;10050;55.492;13.506;2022-12-07T06:59:08;1.10;99.90
19781;DHT22;10050;55.492;13.506;2022-12-07T07:01:34;1.00;99.90
19781;DHT22;10050;55.492;13.506;2022-12-07T07:04:01;1.00;99.90
19781;DHT22;10050;55.492;13.506;2022-12-07T07:06:26;1.10;99.90
19781;DHT22;10050;55.492;13.506;2022-12-07T07:08:52;1.00;99.90
19781;DHT22;10050;55.492;13.506;2022-12-07T07:11:18;1.10;99.90
19781;DHT22;10050;55.492;13.506;2022-12-07T07:13:44;1.10;99.90
19781;DHT22;10050;55.492;13.506;2022-12-07T07:16:10;1.00;99.90
19781;DHT22;10050;55.492;13.506;2022-12-07T07:18:36;1.00;99.90
19781;DHT22;10050;55.492;13.506;2022-12-07T07:21:02;1.00;99.90
19781;DHT22;10050;55.492;13.506;2022-12-07T07:23:28;0.90;99.90
19781;DHT22;10050;55.492;13.506;2022-12-07T07:25:54;0.80;99.90
19781;DHT22;10050;55.492;13.506;2022-12-07T07:28:20;0.80;99.90
19781;DHT22;10050;55.492;13.506;2022-12-07T07:30:45;0.70;99.90
19781;DHT22;10050;55.492;13.506;2022-12-07T07:33:11;0.80;99.90
19781;DHT22;10050;55.492;13.506;2022-12-07T07:35:37;0.80;99.90
19781;DHT22;10050;55.492;13.506;2022-12-07T07:38:03;0.80;99.90
19781;DHT22;10050;55.492;13.506;2022-12-07T07:40:29;0.90;99.90
19781;DHT22;10050;55.492;13.506;2022-12-07T07:42:55;0.90;99.90
19781;DHT22;10050;55.492;13.506;2022-12-07T07:45:22;0.90;99.90
19781;DHT22;10050;55.492;13.506;2022-12-07T07:47:48;0.90;99.90
19781;DHT22;10050;55.492;13.506;2022-12-07T07:50:14;1.00;99.90
19781;DHT22;10050;55.492;13.506;2022-12-07T07:52:41;1.00;99.90
19781;DHT22;10050;55.492;13.506;2022-12-07T07:55:07;1.00;99.90
19781;DHT22;10050;55.492;13.506;2022-12-07T07:57:37;1.10;99.90
19781;DHT22;10050;55.492;13.506;2022-12-07T08:00:13;1.20;99.90
19781;DHT22;10050;55.492;13.506;2022-12-07T08:02:40;1.50;99.90
19781;DHT22;10050;55.492;13.506;2022-12-07T08:05:06;2.10;99.90
19781;DHT22;10050;55.492;13.506;2022-12-07T08:07:32;2.20;99.90
19781;DHT22;10050;55.492;13.506;2022-12-07T08:09:58;3.10;99.90
19781;DHT22;10050;55.492;13.506;2022-12-07T08:12:23;4.80;99.90
19781;DHT22;10050;55.492;13.506;2022-12-07T08:14:49;6.90;99.90
19781;DHT22;10050;55.492;13.506;2022-12-07T08:17:14;8.60;99.90
19781;DHT22;10050;55.492;13.506;2022-12-07T08:19:40;8.90;99.90
19781;DHT22;10050;55.492;13.506;2022-12-07T08:22:06;9.20;99.90
19781;DHT22;10050;55.492;13.506;2022-12-07T08:24:35;9.10;99.90
19781;DHT22;10050;55.492;13.506;2022-12-07T08:27:01;9.80;99.90
19781;DHT22;10050;55.492;13.506;2022-12-07T08:29:27;9.30;99.90
19781;DHT22;10050;55.492;13.506;2022-12-07T08:31:53;8.90;99.90
19781;DHT22;10050;55.492;13.506;2022-12-07T08:34:18;9.30;99.90
19781;DHT22;10050;55.492;13.506;2022-12-07T08:36:44;8.10;99.90
19781;DHT22;10050;55.492;13.506;2022-12-07T08:39:10;6.90;99.90
19781;DHT22;10050;55.492;13.506;2022-12-07T08:41:35;5.90;99.90
19781;DHT22;10050;55.492;13.506;2022-12-07T08:44:01;5.10;99.90
19781;DHT22;10050;55.492;13.506;2022-12-07T08:46:53;4.60;99.90
19781;DHT22;10050;55.492;13.506;2022-12-07T08:49:29;4.10;99.90
19781;DHT22;10050;55.492;13.506;2022-12-07T08:51:57;3.80;99.90
19781;DHT22;10050;55.492;13.506;2022-12-07T08:54:22;3.40;99.90
19781;DHT22;10050;55.492;13.506;2022-12-07T08:56:49;3.30;99.90
19781;DHT22;10050;55.492;13.506;2022-12-07T08:59:18;3.10;99.90
19781;DHT22;10050;55.492;13.506;2022-12-07T09:01:44;3.00;99.90
19781;DHT22;10050;55.492;13.506;2022-12-07T09:04:10;2.90;99.90
19781;DHT22;10050;55.492;13.506;2022-12-07T09:06:36;2.80;99.90
19781;DHT22;10050;55.492;13.506;2022-12-07T09:09:02;3.30;99.90
19781;DHT22;10050;55.492;13.506;2022-12-07T09:11:28;4.10;99.90
19781;DHT22;10050;55.492;13.506;2022-12-07T09:13:55;5.40;99.90
19781;DHT22;10050;55.492;13.506;2022-12-07T09:16:21;6.90;99.90
19781;DHT22;10050;55.492;13.506;2022-12-07T09:18:46;8.00;99.90
19781;DHT22;10050;55.492;13.506;2022-12-07T09:21:12;8.50;99.90
19781;DHT22;10050;55.492;13.506;2022-12-07T09:23:37;8.20;99.90
19781;DHT22;10050;55.492;13.506;2022-12-07T09:26:04;8.20;99.90
19781;DHT22;10050;55.492;13.506;2022-12-07T09:28:33;8.80;99.90
19781;DHT22;10050;55.492;13.506;2022-12-07T09:30:59;9.60;99.90
19781;DHT22;10050;55.492;13.506;2022-12-07T09:33:25;10.50;99.90
19781;DHT22;10050;55.492;13.506;2022-12-07T09:35:51;11.20;99.90
19781;DHT22;10050;55.492;13.506;2022-12-07T09:38:18;11.70;99.90
19781;DHT22;10050;55.492;13.506;2022-12-07T09:40:45;11.70;99.90
19781;DHT22;10050;55.492;13.506;2022-12-07T09:43:22;11.10;99.90
19781;DHT22;10050;55.492;13.506;2022-12-07T09:45:51;10.80;99.90
19781;DHT22;10050;55.492;13.506;2022-12-07T09:48:21;10.50;99.90
19781;DHT22;10050;55.492;13.506;2022-12-07T09:50:48;10.60;99.90
19781;DHT22;10050;55.492;13.506;2022-12-07T09:53:23;10.00;99.90
19781;DHT22;10050;55.492;13.506;2022-12-07T09:55:49;8.90;99.90
19781;DHT22;10050;55.492;13.506;2022-12-07T09:58:22;8.00;99.90
19781;DHT22;10050;55.492;13.506;2022-12-07T10:00:59;7.10;99.90
19781;DHT22;10050;55.492;13.506;2022-12-07T10:03:28;6.40;99.90
19781;DHT22;10050;55.492;13.506;2022-12-07T10:05:54;5.70;99.90
19781;DHT22;10050;55.492;13.506;2022-12-07T10:08:21;5.40;99.90
19781;DHT22;10050;55.492;13.506;2022-12-07T10:10:53;5.30;99.90
19781;DHT22;10050;55.492;13.506;2022-12-07T10:13:36;5.50;99.90
19781;DHT22;10050;55.492;13.506;2022-12-07T10:16:02;5.60;99.90
19781;DHT22;10050;55.492;13.506;2022-12-07T10:18:39;6.00;99.90
19781;DHT22;10050;55.492;13.506;2022-12-07T10:21:15;6.50;99.90
19781;DHT22;10050;55.492;13.506;2022-12-07T10:24:13;6.90;99.90
19781;DHT22;10050;55.492;13.506;2022-12-07T10:29:31;7.10;99.90
19781;DHT22;10050;55.492;13.506;2022-12-07T10:32:05;7.10;99.90
19781;DHT22;10050;55.492;13.506;2022-12-07T10:34:35;7.10;99.90
19781;DHT22;10050;55.492;13.506;2022-12-07T10:42:23;6.80;99.90
19781;DHT22;10050;55.492;13.506;2022-12-07T10:45:06;6.60;99.90
19781;DHT22;10050;55.492;13.506;2022-12-07T11:07:10;3.80;99.90
19781;DHT22;10050;55.492;13.506;2022-12-07T11:12:57;3.60;99.90
19781;DHT22;10050;55.492;13.506;2022-12-07T11:15:49;3.40;99.90
19781;DHT22;10050;55.492;13.506;2022-12-07T11:21:58;3.20;99.90
19781;DHT22;10050;55.492;13.506;2022-12-07T11:24:04;3.00;99.90
19781;DHT22;10050;55.492;13.506;2022-12-07T11:32:03;3.00;99.90
19781;DHT22;10050;55.492;13.506;2022-12-07T11:37:19;3.00;99.90
19781;DHT22;10050;55.492;13.506;2022-12-07T11:39:54;3.00;99.90
19781;DHT22;10050;55.492;13.506;2022-12-07T11:42:24;3.00;99.90
19781;DHT22;10050;55.492;13.506;2022-12-07T11:45:17;3.10;99.90
19781;DHT22;10050;55.492;13.506;2022-12-07T11:47:47;3.30;99.90
19781;DHT22;10050;55.492;13.506;2022-12-07T11:50:40;3.40;99.90
19781;DHT22;10050;55.492;13.506;2022-12-07T11:55:52;3.30;99.90
19781;DHT22;10050;55.492;13.506;2022-12-07T12:03:45;3.30;99.90
19781;DHT22;10050;55.492;13.506;2022-12-07T12:06:11;3.30;99.90
19781;DHT22;10050;55.492;13.506;2022-12-07T12:08:42;3.30;99.90
19781;DHT22;10050;55.492;13.506;2022-12-07T12:17:03;3.30;99.90
19781;DHT22;10050;55.492;13.506;2022-12-07T12:19:38;3.50;99.90
19781;DHT22;10050;55.492;13.506;2022-12-07T12:22:15;3.50;99.90
19781;DHT22;10050;55.492;13.506;2022-12-07T12:24:43;3.50;99.90
19781;DHT22;10050;55.492;13.506;2022-12-07T12:27:28;3.40;99.90
19781;DHT22;10050;55.492;13.506;2022-12-07T12:29:59;3.20;99.90
19781;DHT22;10050;55.492;13.506;2022-12-07T12:32:38;3.10;99.90
19781;DHT22;10050;55.492;13.506;2022-12-07T12:35:36;3.00;99.90
19781;DHT22;10050;55.492;13.506;2022-12-07T12:38:27;2.90;99.90
19781;DHT22;10050;55.492;13.506;2022-12-07T12:40:54;2.80;99.90
19781;DHT22;10050;55.492;13.506;2022-12-07T12:43:49;2.70;99.90
19781;DHT22;10050;55.492;13.506;2022-12-07T12:49:33;2.50;99.90
19781;DHT22;10050;55.492;13.506;2022-12-07T12:57:35;2.50;99.90
19781;DHT22;10050;55.492;13.506;2022-12-07T13:02:50;2.60;99.90
19781;DHT22;10050;55.492;13.506;2022-12-07T13:05:20;2.60;99.90
19781;DHT22;10050;55.492;13.506;2022-12-07T13:29:16;2.50;99.90
19781;DHT22;10050;55.492;13.506;2022-12-07T13:31:54;2.50;99.90
19781;DHT22;10050;55.492;13.506;2022-12-07T13:34:34;2.50;99.90
19781;DHT22;10050;55.492;13.506;2022-12-07T13:37:08;2.50;99.90
19781;DHT22;10050;55.492;13.506;2022-12-07T13:40:29;2.50;99.90
19781;DHT22;10050;55.492;13.506;2022-12-07T13:42:33;2.50;99.90
19781;DHT22;10050;55.492;13.506;2022-12-07T13:45:17;2.40;99.90
19781;DHT22;10050;55.492;13.506;2022-12-07T13:47:52;2.40;99.90
19781;DHT22;10050;55.492;13.506;2022-12-07T13:50:29;2.30;99.90
19781;DHT22;10050;55.492;13.506;2022-12-07T13:52:58;2.30;99.90
19781;DHT22;10050;55.492;13.506;2022-12-07T13:55:24;2.20;99.90
19781;DHT22;10050;55.492;13.506;2022-12-07T13:57:51;2.10;99.90
19781;DHT22;10050;55.492;13.506;2022-12-07T14:00:35;2.10;99.90
19781;DHT22;10050;55.492;13.506;2022-12-07T14:03:04;2.10;99.90
19781;DHT22;10050;55.492;13.506;2022-12-07T14:05:34;2.30;99.90
19781;DHT22;10050;55.492;13.506;2022-12-07T14:10:37;2.10;99.90
19781;DHT22;10050;55.492;13.506;2022-12-07T14:13:30;1.90;99.90
19781;DHT22;10050;55.492;13.506;2022-12-07T14:15:58;1.90;99.90
19781;DHT22;10050;55.492;13.506;2022-12-07T14:21:03;1.70;99.90
19781;DHT22;10050;55.492;13.506;2022-12-07T14:23:29;1.70;99.90
19781;DHT22;10050;55.492;13.506;2022-12-07T14:26:06;1.60;99.90
19781;DHT22;10050;55.492;13.506;2022-12-07T14:28:36;1.50;99.90
19781;DHT22;10050;55.492;13.506;2022-12-07T14:31:03;1.40;99.90
19781;DHT22;10050;55.492;13.506;2022-12-07T14:33:33;1.40;99.90
19781;DHT22;10050;55.492;13.506;2022-12-07T14:35:59;1.40;99.90
19781;DHT22;10050;55.492;13.506;2022-12-07T14:38:25;1.50;99.90
19781;DHT22;10050;55.492;13.506;2022-12-07T14:40:55;1.40;99.90
19781;DHT22;10050;55.492;13.506;2022-12-07T14:43:41;1.30;99.90
19781;DHT22;10050;55.492;13.506;2022-12-07T14:46:06;1.30;99.90
19781;DHT22;10050;55.492;13.506;2022-12-07T14:48:32;1.40;99.90
19781;DHT22;10050;55.492;13.506;2022-12-07T14:50:58;1.30;99.90
19781;DHT22;10050;55.492;13.506;2022-12-07T14:53:30;1.20;99.90
19781;DHT22;10050;55.492;13.506;2022-12-07T14:55:57;1.20;99.90
19781;DHT22;10050;55.492;13.506;2022-12-07T14:58:22;1.10;99.90
19781;DHT22;10050;55.492;13.506;2022-12-07T15:00:48;1.10;99.90
19781;DHT22;10050;55.492;13.506;2022-12-07T15:03:14;1.10;99.90
19781;DHT22;10050;55.492;13.506;2022-12-07T15:05:40;1.10;99.90
19781;DHT22;10050;55.492;13.506;2022-12-07T15:08:11;1.00;99.90
19781;DHT22;10050;55.492;13.506;2022-12-07T15:10:37;1.00;99.90
19781;DHT22;10050;55.492;13.506;2022-12-07T15:13:04;1.10;99.90
19781;DHT22;10050;55.492;13.506;2022-12-07T15:15:50;1.10;99.90
19781;DHT22;10050;55.492;13.506;2022-12-07T15:18:17;1.10;99.90
19781;DHT22;10050;55.492;13.506;2022-12-07T15:20:43;1.10;99.90
19781;DHT22;10050;55.492;13.506;2022-12-07T15:23:10;1.00;99.90
19781;DHT22;10050;55.492;13.506;2022-12-07T15:25:42;1.00;99.90
19781;DHT22;10050;55.492;13.506;2022-12-07T15:28:07;1.00;99.90
19781;DHT22;10050;55.492;13.506;2022-12-07T15:30:33;1.10;99.90
19781;DHT22;10050;55.492;13.506;2022-12-07T15:32:59;1.20;99.90
19781;DHT22;10050;55.492;13.506;2022-12-07T15:35:24;1.20;99.90
19781;DHT22;10050;55.492;13.506;2022-12-07T15:37:50;1.10;99.90
19781;DHT22;10050;55.492;13.506;2022-12-07T15:40:16;1.10;99.90
19781;DHT22;10050;55.492;13.506;2022-12-07T15:42:41;1.00;99.90
19781;DHT22;10050;55.492;13.506;2022-12-07T15:45:08;1.00;99.90
19781;DHT22;10050;55.492;13.506;2022-12-07T15:47:40;0.90;99.90
19781;DHT22;10050;55.492;13.506;2022-12-07T15:50:10;0.70;99.90
19781;DHT22;10050;55.492;13.506;2022-12-07T15:52:36;0.70;99.90
19781;DHT22;10050;55.492;13.506;2022-12-07T15:55:03;0.70;99.90
19781;DHT22;10050;55.492;13.506;2022-12-07T15:57:33;0.80;99.90
19781;DHT22;10050;55.492;13.506;2022-12-07T15:59:58;0.70;99.90
19781;DHT22;10050;55.492;13.506;2022-12-07T16:02:25;0.60;99.90
19781;DHT22;10050;55.492;13.506;2022-12-07T16:04:51;0.70;99.90
19781;DHT22;10050;55.492;13.506;2022-12-07T16:07:17;0.60;99.90
19781;DHT22;10050;55.492;13.506;2022-12-07T16:09:45;0.60;99.90
19781;DHT22;10050;55.492;13.506;2022-12-07T16:12:12;0.60;99.90
19781;DHT22;10050;55.492;13.506;2022-12-07T16:14:38;0.60;99.90
19781;DHT22;10050;55.492;13.506;2022-12-07T16:17:04;0.70;99.90
19781;DHT22;10050;55.492;13.506;2022-12-07T16:19:31;0.70;99.90
19781;DHT22;10050;55.492;13.506;2022-12-07T16:21:57;0.70;99.90
19781;DHT22;10050;55.492;13.506;2022-12-07T16:24:23;0.60;99.90
19781;DHT22;10050;55.492;13.506;2022-12-07T16:26:49;0.60;99.90
19781;DHT22;10050;55.492;13.506;2022-12-07T16:29:15;0.60;99.90
19781;DHT22;10050;55.492;13.506;2022-12-07T16:31:41;0.70;99.90
19781;DHT22;10050;55.492;13.506;2022-12-07T16:34:08;0.70;99.90
19781;DHT22;10050;55.492;13.506;2022-12-07T16:36:34;0.70;99.90
19781;DHT22;10050;55.492;13.506;2022-12-07T16:39:00;0.60;99.90
19781;DHT22;10050;55.492;13.506;2022-12-07T16:41:26;0.70;99.90
19781;DHT22;10050;55.492;13.506;2022-12-07T16:43:52;0.70;99.90
19781;DHT22;10050;55.492;13.506;2022-12-07T16:46:18;0.60;99.90
19781;DHT22;10050;55.492;13.506;2022-12-07T16:48:44;0.60;99.90
19781;DHT22;10050;55.492;13.506;2022-12-07T16:51:12;0.60;99.90
19781;DHT22;10050;55.492;13.506;2022-12-07T16:53:43;0.60;99.90
19781;DHT22;10050;55.492;13.506;2022-12-07T16:56:15;0.70;99.90
19781;DHT22;10050;55.492;13.506;2022-12-07T16:58:42;0.70;99.90
19781;DHT22;10050;55.492;13.506;2022-12-07T17:01:13;0.60;99.90
19781;DHT22;10050;55.492;13.506;2022-12-07T17:03:39;0.60;99.90
19781;DHT22;10050;55.492;13.506;2022-12-07T17:06:19;0.50;99.90
19781;DHT22;10050;55.492;13.506;2022-12-07T17:08:45;0.50;99.90
19781;DHT22;10050;55.492;13.506;2022-12-07T17:11:16;0.50;99.90
19781;DHT22;10050;55.492;13.506;2022-12-07T17:13:42;0.60;99.90
19781;DHT22;10050;55.492;13.506;2022-12-07T17:16:28;0.60;99.90
19781;DHT22;10050;55.492;13.506;2022-12-07T17:18:54;0.60;99.90
19781;DHT22;10050;55.492;13.506;2022-12-07T17:21:20;0.70;99.90
19781;DHT22;10050;55.492;13.506;2022-12-07T17:23:46;0.70;99.90
19781;DHT22;10050;55.492;13.506;2022-12-07T17:26:22;0.70;99.90
19781;DHT22;10050;55.492;13.506;2022-12-07T17:28:49;0.70;99.90
19781;DHT22;10050;55.492;13.506;2022-12-07T17:31:16;0.80;99.90
19781;DHT22;10050;55.492;13.506;2022-12-07T17:33:43;0.80;99.90
19781;DHT22;10050;55.492;13.506;2022-12-07T17:36:12;0.80;99.90
19781;DHT22;10050;55.492;13.506;2022-12-07T17:38:38;0.80;99.90
19781;DHT22;10050;55.492;13.506;2022-12-07T17:41:15;0.80;99.90
19781;DHT22;10050;55.492;13.506;2022-12-07T17:44:00;0.80;99.90
19781;DHT22;10050;55.492;13.506;2022-12-07T17:46:26;0.90;99.90
19781;DHT22;10050;55.492;13.506;2022-12-07T17:48:55;0.90;99.90